Flight Track Log - Related Links

Times and Time Zones

All times are in EST time to prevent confusion due to time zone crossing. See the SWA706 flight status page for this flight to view local times or setup timezone preferences in your user account.

Time Position Orientation Groundspeed Altitude Reporting Facility
EST Latitude Longitude Course Direction KTS MPH feet Rate Location/Type
Sat 08:08:37 PM 29.6333 -95.2653 221° Southwest 131 151 1,100  Level Houston Center
Sat 08:09:32 PM 29.5917 -95.2464 158° South 192 221 3,300 2,194 Climbing Houston Center
Sat 08:10:10 PM 29.5564 -95.2464 180° South 203 234 4,500 2,361 Climbing Houston Center
Sat 08:10:33 PM 29.5247 -95.2497 185° South 264 304 5,700 2,903 Climbing Houston Center
Sat 08:11:12 PM 29.4839 -95.2542 185° South 254 292 7,500 3,400 Climbing Houston Center
Sat 08:11:33 PM 29.4581 -95.2794 220° Southwest 279 321 9,100 3,194 Climbing Houston Center
Sat 08:12:14 PM 29.4333 -95.3211 236° Southwest 277 319 10,800 2,941 Climbing Houston Center
Sat 08:13:15 PM 29.3767 -95.4039 232° Southwest 316 364 14,100 3,561 Climbing Houston Center
Sat 08:14:00 PM 29.2824 -95.6676 221° Southwest  Level FlightAware Approximate
Sat 08:14:17 PM 29.3186 -95.4869 231° Southwest 330 380 18,100  Level Houston Center
Sat 08:15:18 PM 29.2561 -95.5700 229° Southwest 338 389 21,400 3,561 Climbing Houston Center
Sat 08:16:20 PM 29.1792 -95.6750 230° Southwest 355 409 25,400 2,244 Climbing Houston Center
Sat 08:17:21 PM 29.1167 -95.7575 229° Southwest 349 402 26,000 98 Climbing Houston Center
Sat 08:18:23 PM 29.0539 -95.8414 229° Southwest 348 400 25,600 -726 Descending Houston Center
Sat 08:19:25 PM 28.9925 -95.9247 230° Southwest 348 400 24,500 -1,122 Descending Houston Center
Sat 08:20:26 PM 28.9311 -96.0067 229° Southwest 331 381 23,300 -1,073 Descending Houston Center
Sat 08:21:28 PM 28.8722 -96.0856 230° Southwest 328 377 22,300 -634 Descending Houston Center
Sat 08:22:29 PM 28.8150 -96.1611 229° Southwest 317 365 22,000 -146 Descending Houston Center
Sat 08:23:31 PM 28.7558 -96.2397 229° Southwest 320 368 22,000  Level Houston Center
Sat 08:24:32 PM 28.6964 -96.3181 229° Southwest 326 375 22,000  Level Houston Center
Sat 08:25:34 PM 28.6369 -96.3972 229° Southwest 326 375 22,000  Level Houston Center
Sat 08:26:36 PM 28.5653 -96.4914 229° Southwest 327 376 22,000 -390 Level Houston Center
Sat 08:27:37 PM 28.5056 -96.5700 229° Southwest 327 376 21,200 -1,366 Descending Houston Center
Sat 08:28:39 PM 28.4481 -96.6475 230° Southwest 325 374 19,200 -2,043 Descending Houston Center
Sat 08:29:11 PM 28.4139 -96.6903 228° Southwest 324 373 18,000 -2,066 Descending Houston Center
Sat 08:29:40 PM 28.3889 -96.7253 231° Southwest 325 374 17,100 -2,044 Descending Houston Center
Sat 08:30:42 PM 28.3292 -96.8017 228° Southwest 325 374 14,900 -2,483 Descending Houston Center
Sat 08:31:36 PM 28.2797 -96.8811 235° Southwest 319 367 12,300 -2,557 Descending Houston Center
Sat 08:31:43 PM 28.2786 -96.8836 243° Southwest 320 368 12,300 -2,262 Level Houston Center
Sat 08:32:37 PM 28.2267 -96.9719 236° Southwest 327 376 10,000 -2,323 Descending Houston Center
Sat 08:32:45 PM 28.2222 -96.9861 250° West 325 374 9,900 -700 Descending Houston Center
Sat 08:33:37 PM 28.1964 -97.0572 248° West 295 339 9,300 -787 Descending Houston Center
Sat 08:33:46 PM 28.1878 -97.0728 238° Southwest 299 344 9,100 -1,574 Descending Houston Center
Sat 08:34:38 PM 28.1589 -97.1383 243° Southwest 273 314 7,700 -1,742 Descending Houston Center
Sat 08:34:48 PM 28.1539 -97.1517 247° West 276 318 7,300 -1,700 Descending Houston Center
Sat 08:35:38 PM 28.1297 -97.2161 247° West 278 320 6,000 -1,574 Descending Houston Center
Sat 08:35:49 PM 28.1222 -97.2356 246° West 280 322 5,700 -1,082 Descending Houston Center
Sat 08:36:39 PM 28.0967 -97.2992 246° West 277 319 4,900 -968 Descending Houston Center
Sat 08:36:51 PM 28.0911 -97.3144 248° West 273 314 4,700 -1,279 Descending Houston Center
Sat 08:37:40 PM 28.0603 -97.3706 238° Southwest 253 291 3,600 -1,355 Descending Houston Center
Sat 08:37:53 PM 28.0528 -97.3833 236° Southwest 259 298 3,300 -1,200 Descending Houston Center
Sat 08:38:40 PM 28.0231 -97.4350 237° Southwest 249 287 2,400 -1,180 Descending Houston Center
Sat 08:38:54 PM 28.0153 -97.4517 242° Southwest 254 292 2,100 -393 Descending Houston Center
Sat 08:39:41 PM 27.9906 -97.5036 242° Southwest 233 268 2,000 -97 Descending Houston Center
Sat 08:39:56 PM 27.9828 -97.5156 234° Southwest 235 270 2,000  Level Houston Center
Sat 08:40:41 PM 27.9539 -97.5536 229° Southwest 210 242 2,000  Level Houston Center
Sat 08:40:57 PM 27.9436 -97.5672 229° Southwest 217 250 2,000  Level Houston Center
Sat 08:41:42 PM 27.9172 -97.6036 231° Southwest 183 211 2,000  Level Houston Center
Sat 08:41:59 PM 27.9094 -97.6147 232° Southwest 197 227 2,000  Level Houston Center
Sat 08:42:43 PM 27.8764 -97.6139 179° South 151 174 2,000  Level Houston Center
Sat 08:43:00 PM 27.8669 -97.6100 160° South 161 185 2,000 -200 Level Houston Center
Sat 08:43:43 PM 27.8439 -97.5875 139° Southeast 143 165 1,800 -387 Descending Houston Center
Sat 08:44:02 PM 27.8361 -97.5789 136° Southeast 147 169 1,600 -590 Descending Houston Center
Sat 08:44:44 PM 27.8200 -97.5600 134° Southeast 113 130 1,200 -590 Descending Houston Center
Sat 08:45:03 PM 27.8139 -97.5533 136° Southeast 115 132 1,000 -600 Descending Houston Center
Sat 08:45:44 PM 27.7964 -97.5372 141° Southeast 113 130 600 -581 Descending Houston Center
Sat 08:46:05 PM 27.7894 -97.5278 130° Southeast 115 132 400 -293 Descending Houston Center
Sat 08:47:06 PM 27.7678 -97.5053 137° Southeast 116 133 200 -197 Descending Houston Center

Login

Don't have an account? Register now (free) for customized features, flight alerts, and more!